Time;durP1;ratioP1;P1;durP2;ratioP2;P2;SDS_P1;SDS_P2;PMS_P1;PMS_P2;Temp;Humidity;BMP_temperature;BMP_pressure;BME280_temperature;BME280_humidity;BME280_pressure;Samples;Min_cycle;Max_cycle;Signal;HPM_P1;HPM_P2
2022/08/08 00:01:30;;;;;;;2.30;1.80;;;;;;;19.64;41.01;156412.16;5016043;28;20454;-84
2022/08/08 00:04:10;;;;;;;2.30;2.10;;;;;;;19.61;41.12;156403.03;5017361;28;20566;-84
2022/08/08 00:06:53;;;;;;;2.13;1.93;;;;;;;19.60;41.37;156400.41;5035128;28;20439;-84
2022/08/08 00:09:31;;;;;;;1.93;1.73;;;;;;;19.65;41.37;156413.44;5016843;28;20447;-84
2022/08/08 00:12:00;;;;;;;2.10;1.90;;;;;;;19.73;41.16;156434.28;5033850;28;20435;-84
2022/08/08 00:14:40;;;;;;;1.70;1.60;;;;;;;19.78;41.27;156448.63;5000268;28;20467;-84
2022/08/08 00:17:15;;;;;;;1.87;1.50;;;;;;;19.91;40.75;156482.53;5034214;28;20470;-84
2022/08/08 00:19:49;;;;;;;1.97;1.80;;;;;;;19.92;41.02;156483.84;4999560;28;20468;-84
2022/08/08 00:22:24;;;;;;;2.03;1.70;;;;;;;19.89;40.88;156477.34;5013002;28;20514;-84
2022/08/08 00:25:01;;;;;;;1.77;1.67;;;;;;;19.88;41.18;156474.69;5023884;28;20555;-84
2022/08/08 00:27:37;;;;;;;1.70;1.60;;;;;;;19.82;41.72;156459.09;5036352;28;20446;-84
2022/08/08 00:30:08;;;;;;;2.13;1.70;;;;;;;19.83;41.67;156460.41;5021184;28;20511;-84
2022/08/08 00:32:44;;;;;;;2.20;2.00;;;;;;;19.77;42.22;156444.75;5015802;28;20456;-84
2022/08/08 00:35:25;;;;;;;2.60;1.90;;;;;;;19.70;42.34;156427.78;5016220;28;20439;-84
2022/08/08 00:38:10;;;;;;;3.00;2.00;;;;;;;19.74;41.56;156436.91;5000212;28;20537;-84
2022/08/08 00:41:11;;;;;;;1.90;1.77;;;;;;;19.70;42.31;156426.47;5015859;28;20511;-84
2022/08/08 00:43:48;;;;;;;2.20;2.00;;;;;;;19.53;42.61;156382.16;5021567;28;20458;-84
2022/08/08 00:47:05;;;;;;;2.23;1.97;;;;;;;19.39;43.24;156348.28;5015829;28;20479;-84
2022/08/08 00:50:03;;;;;;;2.50;2.30;;;;;;;19.27;43.77;156316.91;4955312;28;20450;-84
2022/08/08 00:52:49;;;;;;;2.00;1.63;;;;;;;19.10;44.07;156272.63;5033065;28;20448;-84
2022/08/08 00:56:04;;;;;;;2.20;1.83;;;;;;;19.05;44.85;156259.59;5032033;28;20436;-84
2022/08/08 00:59:11;;;;;;;2.47;1.90;;;;;;;18.92;44.41;156225.72;4952928;29;20467;-84
2022/08/08 01:01:50;;;;;;;2.20;1.70;;;;;;;18.83;44.96;156202.25;4998416;28;20501;-84
2022/08/08 01:05:09;;;;;;;2.00;1.80;;;;;;;18.75;45.28;156181.41;4993081;28;20448;-84
2022/08/08 01:08:04;;;;;;;2.60;2.40;;;;;;;18.73;45.31;156176.22;4999299;28;20462;-84
2022/08/08 01:10:52;;;;;;;3.00;2.27;;;;;;;18.72;45.65;156173.59;4998270;28;20938;-84
2022/08/08 01:13:51;;;;;;;2.80;2.13;;;;;;;18.68;45.52;156163.19;4997389;28;20974;-84
2022/08/08 01:16:38;;;;;;;2.20;2.00;;;;;;;18.63;45.34;156150.16;5015900;28;20454;-84
2022/08/08 01:19:48;;;;;;;2.37;1.90;;;;;;;18.58;45.62;156137.13;4999786;28;20498;-84
2022/08/08 01:22:38;;;;;;;1.90;1.80;;;;;;;18.57;45.70;156134.53;4996819;28;20856;-84
2022/08/08 01:25:41;;;;;;;3.40;2.23;;;;;;;18.55;45.97;156129.31;4998383;28;20471;-84
2022/08/08 01:28:28;;;;;;;2.57;2.37;;;;;;;18.54;45.67;156126.69;4998706;28;20440;-84
2022/08/08 01:31:22;;;;;;;3.80;2.40;;;;;;;18.55;46.09;156129.31;4997597;28;20795;-83
2022/08/08 01:34:14;;;;;;;2.20;1.97;;;;;;;18.54;46.40;156126.69;4989739;28;20457;-84
2022/08/08 01:37:22;;;;;;;2.27;2.07;;;;;;;18.53;45.72;156125.38;4996108;28;20471;-84
2022/08/08 01:40:12;;;;;;;4.13;2.10;;;;;;;18.47;46.05;156109.78;4978870;28;20539;-84
2022/08/08 01:42:51;;;;;;;2.07;1.87;;;;;;;18.32;46.56;156069.38;5013324;28;20460;-84
2022/08/08 01:45:39;;;;;;;2.83;2.33;;;;;;;18.27;46.36;156057.59;5014989;28;20880;-84
2022/08/08 01:48:19;;;;;;;1.77;1.67;;;;;;;18.16;46.44;156030.25;4995348;28;20445;-83
2022/08/08 01:51:00;;;;;;;2.17;1.97;;;;;;;18.10;46.62;156014.66;5014088;28;20423;-84
2022/08/08 01:53:47;;;;;;;2.60;2.10;;;;;;;18.08;46.69;156009.41;5013056;28;20456;-84
2022/08/08 01:56:24;;;;;;;2.10;1.90;;;;;;;18.00;47.11;155988.59;4998386;28;20464;-84
2022/08/08 01:59:17;;;;;;;2.30;2.07;;;;;;;17.99;47.52;155986.00;4997003;28;20475;-84
2022/08/08 02:02:08;;;;;;;3.30;2.10;;;;;;;17.96;47.25;155976.88;4994244;28;20567;-83
2022/08/08 02:04:58;;;;;;;2.40;2.20;;;;;;;17.89;48.03;155959.97;4978615;28;20648;-84
2022/08/08 02:07:31;;;;;;;3.30;2.20;;;;;;;17.84;48.44;155946.97;4977779;28;20450;-84
2022/08/08 02:10:13;;;;;;;2.00;1.80;;;;;;;17.80;48.48;155936.53;4993320;28;20508;-84
2022/08/08 02:12:53;;;;;;;1.70;1.60;;;;;;;17.75;49.48;155923.50;5014057;28;20440;-84
2022/08/08 02:15:31;;;;;;;2.20;2.00;;;;;;;17.75;49.41;155922.19;5015112;28;20414;-84
2022/08/08 02:18:04;;;;;;;2.10;1.90;;;;;;;17.72;49.07;155914.38;4996798;28;20460;-84
2022/08/08 02:20:37;;;;;;;2.50;2.00;;;;;;;17.66;49.13;155900.06;4988273;28;20588;-84
2022/08/08 02:23:17;;;;;;;2.40;1.83;;;;;;;17.60;49.26;155885.78;5012177;28;20494;-84
2022/08/08 02:25:57;;;;;;;2.30;2.10;;;;;;;17.57;49.47;155876.66;5013353;28;20836;-84
2022/08/08 02:28:36;;;;;;;2.33;2.13;;;;;;;17.54;49.66;155868.84;5003774;28;20534;-84
2022/08/08 02:31:13;;;;;;;2.73;1.80;;;;;;;17.54;50.03;155868.84;4978877;28;20495;-84
2022/08/08 02:34:00;;;;;;;2.33;2.00;;;;;;;17.54;50.46;155870.16;4992169;28;20981;-84
2022/08/08 02:36:40;;;;;;;2.40;2.20;;;;;;;17.52;49.90;155863.59;5014292;28;20436;-84
2022/08/08 02:39:36;;;;;;;2.37;2.17;;;;;;;17.48;50.58;155853.16;5013535;28;20452;-84
2022/08/08 02:42:51;;;;;;;3.00;2.33;;;;;;;17.49;50.34;155857.09;5014158;28;20416;-83
2022/08/08 02:45:48;;;;;;;2.33;2.00;;;;;;;17.51;50.24;155860.97;4948539;28;20448;-84
2022/08/08 02:48:36;;;;;;;4.10;2.20;;;;;;;17.47;50.80;155850.56;5013348;28;20484;-83
2022/08/08 02:51:36;;;;;;;2.20;2.00;;;;;;;17.45;50.51;155845.34;4996836;28;20820;-84
2022/08/08 02:54:32;;;;;;;2.23;1.83;;;;;;;17.44;50.62;155844.06;5004916;28;20448;-83
2022/08/08 02:57:42;;;;;;;2.40;2.20;;;;;;;17.43;49.91;155840.13;4987437;28;20455;-84
2022/08/08 03:00:41;;;;;;;3.57;2.30;;;;;;;17.40;50.44;155832.31;4997432;28;20845;-84
2022/08/08 03:03:41;;;;;;;2.50;2.30;;;;;;;17.39;50.40;155831.06;5014709;28;20463;-84
2022/08/08 03:06:56;;;;;;;2.63;2.43;;;;;;;17.36;50.51;155821.94;4993925;28;20824;-83
2022/08/08 03:09:56;;;;;;;3.90;2.40;;;;;;;17.31;51.66;155810.22;5013355;28;20561;-83
2022/08/08 03:12:58;;;;;;;3.10;2.37;;;;;;;17.30;51.86;155806.28;5013004;28;20501;-84
2022/08/08 03:16:18;;;;;;;3.23;2.93;;;;;;;17.27;52.86;155799.78;4980028;28;20930;-84
2022/08/08 03:19:00;;;;;;;2.90;2.70;;;;;;;17.25;52.98;155793.28;4948690;28;20485;-83
2022/08/08 03:21:26;;;;;;;3.33;2.83;;;;;;;17.15;53.90;155767.28;5021147;28;20905;-83
2022/08/08 03:24:01;;;;;;;3.37;3.07;;;;;;;17.07;54.74;155746.44;5030508;28;20486;-83
2022/08/08 03:26:34;;;;;;;2.60;2.40;;;;;;;17.05;55.60;155743.81;4996480;28;20845;-84
2022/08/08 03:29:08;;;;;;;8.80;3.20;;;;;;;17.05;55.82;155742.53;5020257;28;20454;-83
2022/08/08 03:34:23;;;;;;;2.53;2.33;;;;;;;17.07;55.82;155747.75;4984629;28;20460;-84
2022/08/08 03:36:58;;;;;;;2.73;2.53;;;;;;;16.94;56.55;155715.19;4999751;28;20500;-83
2022/08/08 03:39:39;;;;;;;2.93;2.63;;;;;;;16.90;56.79;155704.81;4977781;28;20813;-84
2022/08/08 03:42:20;;;;;;;10.03;2.80;;;;;;;16.94;56.61;155715.19;4994701;28;20455;-84
2022/08/08 03:44:48;;;;;;;3.57;2.97;;;;;;;16.98;57.22;155724.31;4978179;28;20818;-84
2022/08/08 03:47:26;;;;;;;2.90;2.70;;;;;;;16.93;57.20;155712.63;5011091;28;20433;-83
2022/08/08 03:49:54;;;;;;;3.10;2.80;;;;;;;16.91;57.54;155706.13;4997937;28;20451;-83
2022/08/08 03:52:23;;;;;;;3.23;3.03;;;;;;;16.93;58.47;155711.31;5033684;28;20439;-83
2022/08/08 03:54:52;;;;;;;3.10;2.90;;;;;;;16.93;58.72;155712.63;5019375;28;21027;-83
2022/08/08 03:57:25;;;;;;;3.20;3.00;;;;;;;16.93;58.87;155711.31;4993594;28;20847;-83
2022/08/08 03:59:55;;;;;;;3.30;3.00;;;;;;;16.89;60.08;155702.19;4983522;28;20514;-83
2022/08/08 04:02:28;;;;;;;3.43;3.13;;;;;;;16.83;60.94;155685.31;5029087;28;20443;-83
2022/08/08 04:05:05;;;;;;;5.03;3.90;;;;;;;16.75;61.71;155665.78;5013009;28;20907;-83
2022/08/08 04:07:36;;;;;;;4.40;3.80;;;;;;;16.77;61.81;155670.97;4996799;28;20824;-83
2022/08/08 04:10:06;;;;;;;3.60;3.30;;;;;;;16.78;61.94;155673.59;5024005;28;20452;-84
2022/08/08 04:12:37;;;;;;;3.67;3.37;;;;;;;16.78;62.41;155673.59;4978480;28;20787;-83
2022/08/08 04:15:06;;;;;;;3.73;3.43;;;;;;;16.71;63.04;155655.34;5029687;28;20546;-83
2022/08/08 04:17:34;;;;;;;4.17;3.80;;;;;;;16.60;63.55;155626.72;5016766;28;20455;-83
2022/08/08 04:20:05;;;;;;;4.23;3.83;;;;;;;16.53;63.87;155608.53;5033101;28;20452;-83
2022/08/08 04:22:33;;;;;;;11.33;3.80;;;;;;;16.54;63.96;155609.84;4995987;28;20461;-83
2022/08/08 04:25:04;;;;;;;3.77;3.47;;;;;;;16.53;63.67;155608.53;4996549;28;20508;-83
2022/08/08 04:27:36;;;;;;;3.67;3.27;;;;;;;16.56;64.29;155616.34;5003689;28;20445;-83
2022/08/08 04:30:04;;;;;;;4.13;3.70;;;;;;;16.59;64.32;155622.84;5014041;28;20519;-83
2022/08/08 04:32:39;;;;;;;3.60;3.30;;;;;;;16.57;65.19;155618.97;5004716;28;20963;-83
2022/08/08 04:35:11;;;;;;;4.17;3.87;;;;;;;16.64;66.02;155635.84;5015711;28;20443;-83
2022/08/08 04:37:50;;;;;;;5.20;4.00;;;;;;;16.67;66.04;155644.97;5015612;28;20443;-82
2022/08/08 04:40:23;;;;;;;4.90;4.40;;;;;;;16.64;66.53;155637.16;5015122;28;20463;-82
2022/08/08 04:42:57;;;;;;;4.37;3.97;;;;;;;16.61;66.75;155628.03;5015710;28;20444;-83
2022/08/08 04:45:27;;;;;;;4.10;3.70;;;;;;;16.63;66.89;155633.22;4998787;28;20465;-83
2022/08/08 04:47:59;;;;;;;4.00;3.70;;;;;;;16.67;66.92;155644.97;5015842;28;20923;-83
2022/08/08 04:50:30;;;;;;;4.20;3.80;;;;;;;16.75;67.31;155664.47;4990018;28;20473;-83
2022/08/08 04:52:58;;;;;;;4.23;3.83;;;;;;;16.82;66.87;155684.00;5013739;28;20460;-83
2022/08/08 04:55:30;;;;;;;5.53;4.20;;;;;;;16.83;66.92;155686.59;4996582;28;20475;-84
2022/08/08 04:57:58;;;;;;;4.70;4.30;;;;;;;16.82;67.06;155684.00;5012820;28;20445;-83
2022/08/08 05:00:31;;;;;;;4.87;4.47;;;;;;;16.90;67.19;155703.50;5004913;28;20491;-84
2022/08/08 05:02:59;;;;;;;5.33;3.87;;;;;;;16.96;66.93;155720.44;5028080;28;20476;-84
2022/08/08 05:05:26;;;;;;;4.20;3.90;;;;;;;16.99;66.50;155728.25;4979969;28;20506;-83
2022/08/08 05:07:53;;;;;;;5.03;4.57;;;;;;;17.05;66.90;155743.81;5013589;28;20972;-83
2022/08/08 05:10:23;;;;;;;4.47;4.07;;;;;;;17.31;66.40;155810.22;4986479;28;20449;-83
2022/08/08 05:13:02;;;;;;;5.60;3.90;;;;;;;17.77;66.05;155928.69;4995659;28;20499;-83
2022/08/08 05:15:33;;;;;;;4.53;4.13;;;;;;;18.25;63.98;156053.72;4995350;28;20436;-83
2022/08/08 05:18:03;;;;;;;4.40;4.07;;;;;;;18.66;62.51;156158.00;5013811;28;20491;-83
2022/08/08 05:20:30;;;;;;;4.30;3.90;;;;;;;19.11;61.66;156275.25;5003371;28;20456;-82
2022/08/08 05:23:12;;;;;;;4.17;3.87;;;;;;;19.61;60.04;156403.03;5011893;28;20445;-82
2022/08/08 05:25:39;;;;;;;4.40;4.00;;;;;;;19.91;58.53;156481.22;4992380;28;20528;-82
2022/08/08 05:28:17;;;;;;;4.30;4.00;;;;;;;20.12;58.40;156534.72;5004511;28;20449;-82
2022/08/08 05:30:44;;;;;;;4.83;4.40;;;;;;;20.21;56.77;156559.50;5014722;28;20818;-82
2022/08/08 05:33:13;;;;;;;4.07;3.67;;;;;;;20.45;56.65;156622.16;5013095;28;20492;-82
2022/08/08 05:35:43;;;;;;;3.80;3.50;;;;;;;20.59;56.09;156658.69;4987974;28;20491;-82
2022/08/08 05:38:15;;;;;;;3.60;3.30;;;;;;;20.72;55.00;156689.97;4996120;28;20805;-82
2022/08/08 05:40:53;;;;;;;3.20;2.87;;;;;;;20.74;55.29;156695.19;5011882;28;20468;-82
2022/08/08 05:43:30;;;;;;;3.77;3.47;;;;;;;20.89;54.60;156734.38;4995912;28;20444;-82
2022/08/08 05:46:07;;;;;;;4.00;3.70;;;;;;;21.06;54.41;156780.06;4975842;28;20484;-82
2022/08/08 05:48:40;;;;;;;3.30;3.10;;;;;;;21.15;54.78;156803.53;4997075;28;20455;-82
2022/08/08 05:51:12;;;;;;;4.33;3.60;;;;;;;21.32;53.97;156846.63;4994290;28;20441;-77
2022/08/08 05:53:41;;;;;;;3.90;3.60;;;;;;;21.65;53.34;156932.78;5029898;28;20842;-77
2022/08/08 05:56:09;;;;;;;3.63;3.33;;;;;;;21.93;52.57;157003.31;5015449;28;20432;-77
2022/08/08 05:58:46;;;;;;;3.90;3.47;;;;;;;22.00;51.61;157022.88;5009313;28;20444;-77
2022/08/08 06:01:13;;;;;;;3.87;2.90;;;;;;;22.18;51.19;157068.63;4983150;28;20603;-77
2022/08/08 06:04:00;;;;;;;3.70;3.40;;;;;;;22.38;49.93;157120.84;4994652;28;20966;-78
2022/08/08 06:06:32;;;;;;;3.50;3.20;;;;;;;22.53;49.54;157160.03;5012480;28;20428;-78
2022/08/08 06:09:14;;;;;;;3.17;2.93;;;;;;;22.84;49.02;157241.13;4994537;28;20445;-78
2022/08/08 06:11:42;;;;;;;2.57;2.37;;;;;;;23.10;48.49;157306.41;4983609;28;20459;-78
2022/08/08 06:14:11;;;;;;;3.50;3.23;;;;;;;23.30;47.27;157360.00;5013945;28;20452;-77
2022/08/08 06:16:40;;;;;;;3.47;3.17;;;;;;;23.37;46.75;157377.06;4996511;28;20476;-77
2022/08/08 06:19:19;;;;;;;3.77;2.93;;;;;;;23.56;46.69;157426.75;5029650;28;20439;-77
2022/08/08 06:21:59;;;;;;;5.97;3.00;;;;;;;23.99;46.13;157539.13;5011266;28;20506;-78
2022/08/08 06:24:38;;;;;;;3.73;3.43;;;;;;;24.55;45.61;157684.38;5020371;28;20483;-78
2022/08/08 06:27:12;;;;;;;4.07;3.77;;;;;;;24.86;45.00;157764.19;5013926;28;20456;-78
2022/08/08 06:29:57;;;;;;;5.10;3.30;;;;;;;24.87;44.86;157766.84;5029764;28;20428;-77
2022/08/08 06:32:29;;;;;;;3.50;3.30;;;;;;;24.86;44.81;157764.19;5013547;28;20938;-77
2022/08/08 06:35:08;;;;;;;3.67;3.37;;;;;;;24.51;44.99;157673.94;5011822;28;20809;-77
2022/08/08 06:37:45;;;;;;;6.97;3.53;;;;;;;24.72;45.78;157728.88;4978680;28;20474;-77
2022/08/08 06:40:14;;;;;;;4.17;3.87;;;;;;;24.81;45.11;157751.13;4993998;28;20483;-77
2022/08/08 06:42:47;;;;;;;3.50;3.30;;;;;;;24.89;45.00;157772.03;5009926;28;20480;-78
2022/08/08 06:45:20;;;;;;;4.37;3.97;;;;;;;25.19;44.70;157849.25;4977822;28;20502;-77
2022/08/08 06:47:47;;;;;;;4.70;4.17;;;;;;;25.38;44.49;157899.00;4985713;28;21016;-77
2022/08/08 06:50:14;;;;;;;4.30;4.00;;;;;;;25.13;45.52;157834.84;5012445;28;20544;-78
2022/08/08 06:52:41;;;;;;;4.90;4.50;;;;;;;25.11;45.44;157829.63;5021296;28;20575;-78
2022/08/08 06:55:09;;;;;;;5.23;4.60;;;;;;;24.92;46.13;157778.59;4978217;28;20479;-77
2022/08/08 06:57:36;;;;;;;6.93;3.83;;;;;;;25.08;45.77;157821.78;5013481;28;20448;-78
2022/08/08 07:00:06;;;;;;;4.30;4.00;;;;;;;25.32;46.01;157883.28;5012645;28;20966;-78
2022/08/08 07:02:35;;;;;;;4.30;3.90;;;;;;;25.55;44.97;157942.25;4976754;28;20484;-78
2022/08/08 07:05:06;;;;;;;3.90;3.60;;;;;;;25.48;45.38;157923.91;4993538;28;20433;-78
2022/08/08 07:07:48;;;;;;;4.13;3.83;;;;;;;25.80;44.78;158007.69;5012371;28;20499;-78
2022/08/08 07:10:19;;;;;;;5.20;4.37;;;;;;;25.97;44.25;158052.22;4981931;28;20460;-78
2022/08/08 07:12:56;;;;;;;4.40;4.00;;;;;;;26.14;43.65;158095.44;4979361;28;20465;-78
2022/08/08 07:15:37;;;;;;;4.87;4.57;;;;;;;25.96;44.62;158049.59;5029304;28;20462;-78
2022/08/08 07:18:07;;;;;;;4.77;4.37;;;;;;;26.20;44.46;158112.47;5007846;28;20834;-78
2022/08/08 07:20:36;;;;;;;4.20;3.90;;;;;;;26.33;43.76;158146.53;5011844;28;20450;-81
2022/08/08 07:23:07;;;;;;;4.53;4.23;;;;;;;26.25;43.95;158125.56;4995686;28;20502;-81
2022/08/08 07:25:39;;;;;;;4.10;3.80;;;;;;;26.48;44.07;158184.47;4978608;28;20476;-80
2022/08/08 07:28:09;;;;;;;5.13;4.73;;;;;;;26.58;43.44;158210.72;5015741;28;20931;-81
2022/08/08 07:30:38;;;;;;;4.20;3.90;;;;;;;26.96;43.13;158310.28;4977196;28;20460;-81
2022/08/08 07:33:07;;;;;;;4.20;3.90;;;;;;;27.13;42.49;158354.88;4976685;28;20449;-81
2022/08/08 07:35:36;;;;;;;4.77;4.23;;;;;;;27.37;42.19;158415.13;4990634;28;20499;-81
2022/08/08 07:38:04;;;;;;;4.20;3.60;;;;;;;27.42;42.68;158429.59;4991714;28;20457;-81
2022/08/08 07:40:39;;;;;;;4.57;4.20;;;;;;;27.42;41.66;158428.28;4977586;28;20444;-81
2022/08/08 07:43:11;;;;;;;5.03;4.13;;;;;;;27.25;42.45;158383.66;4993377;28;20472;-81
2022/08/08 07:45:50;;;;;;;4.70;4.30;;;;;;;27.65;42.05;158488.53;4990804;28;20458;-81
2022/08/08 07:48:19;;;;;;;4.60;4.20;;;;;;;27.89;41.17;158551.47;4992461;28;20462;-81
2022/08/08 07:50:46;;;;;;;4.80;3.80;;;;;;;27.99;40.95;158576.34;4994002;28;20827;-81
2022/08/08 07:53:24;;;;;;;4.17;3.87;;;;;;;28.22;40.14;158636.75;4980658;28;20451;-81
2022/08/08 07:55:52;;;;;;;4.67;4.20;;;;;;;28.22;40.61;158636.75;4998826;28;20451;-81
2022/08/08 07:58:23;;;;;;;4.43;4.13;;;;;;;28.27;40.59;158651.19;4995976;28;20460;-82
2022/08/08 08:00:52;;;;;;;4.30;3.90;;;;;;;27.96;40.91;158568.53;4995784;28;20448;-81
2022/08/08 08:03:29;;;;;;;4.30;3.93;;;;;;;28.49;39.74;158707.53;5027229;28;20483;-81
2022/08/08 08:06:00;;;;;;;4.80;4.30;;;;;;;28.04;40.17;158589.56;4982558;28;20510;-79
2022/08/08 08:08:39;;;;;;;4.90;4.50;;;;;;;27.83;40.69;158534.44;4988335;28;20455;-79
2022/08/08 08:11:11;;;;;;;5.13;4.73;;;;;;;27.64;41.15;158485.97;5002498;28;20452;-79
2022/08/08 08:13:41;;;;;;;4.77;4.30;;;;;;;27.77;40.38;158521.31;5028083;28;20440;-79
2022/08/08 08:16:11;;;;;;;4.27;3.87;;;;;;;27.76;39.79;158518.72;5012647;28;20457;-79
2022/08/08 08:18:45;;;;;;;4.50;4.20;;;;;;;28.22;38.89;158636.75;5021583;28;20456;-79
2022/08/08 08:21:12;;;;;;;3.97;3.67;;;;;;;28.25;39.52;158644.63;4994678;28;20448;-78
2022/08/08 08:23:40;;;;;;;4.17;3.77;;;;;;;28.38;38.77;158678.72;4982192;28;20480;-79
2022/08/08 08:26:08;;;;;;;4.43;4.00;;;;;;;27.95;39.09;158565.91;5013976;28;20489;-79
2022/08/08 08:28:35;;;;;;;4.10;3.80;;;;;;;27.93;39.00;158561.97;5011928;28;20549;-78
2022/08/08 08:31:04;;;;;;;4.23;3.87;;;;;;;27.67;39.37;158495.09;4998010;28;20542;-78
2022/08/08 08:33:34;;;;;;;3.90;3.60;;;;;;;27.77;39.53;158521.31;5015616;28;20456;-79
2022/08/08 08:36:06;;;;;;;4.10;3.80;;;;;;;28.03;39.50;158586.91;4986851;28;20930;-79
2022/08/08 08:38:33;;;;;;;3.77;3.57;;;;;;;28.39;38.52;158681.31;5000065;28;20542;-79
2022/08/08 08:41:08;;;;;;;4.47;4.07;;;;;;;28.38;38.53;158679.97;4998282;28;20436;-79
2022/08/08 08:43:35;;;;;;;4.60;4.20;;;;;;;28.22;38.77;158636.75;4981147;28;20535;-79
2022/08/08 08:46:03;;;;;;;4.17;3.87;;;;;;;28.20;38.70;158631.47;5012133;28;20460;-79
2022/08/08 08:48:31;;;;;;;4.57;4.17;;;;;;;28.26;39.15;158647.22;5022936;28;20464;-79
2022/08/08 08:50:59;;;;;;;4.20;3.90;;;;;;;28.52;38.20;158715.41;5031089;28;20452;-79
2022/08/08 08:53:27;;;;;;;4.03;3.73;;;;;;;28.96;38.48;158830.84;5009271;28;20852;-79
2022/08/08 08:55:59;;;;;;;5.00;4.60;;;;;;;28.25;39.18;158644.63;5018935;28;20442;-77
2022/08/08 08:58:31;;;;;;;4.80;4.40;;;;;;;27.55;40.66;158463.66;5017881;28;20477;-76
2022/08/08 09:01:00;;;;;;;4.20;3.80;;;;;;;27.59;40.52;158474.13;5013995;28;20483;-76
2022/08/08 09:03:28;;;;;;;5.63;4.57;;;;;;;27.16;40.52;158361.41;5031678;28;20934;-76
2022/08/08 09:05:55;;;;;;;6.80;4.60;;;;;;;26.83;41.67;158276.25;5014826;28;20431;-76
2022/08/08 09:08:26;;;;;;;6.77;4.37;;;;;;;26.83;41.54;158274.91;4996482;28;20474;-76
2022/08/08 09:10:54;;;;;;;4.70;4.30;;;;;;;26.35;41.91;158150.44;5014535;28;20503;-76
2022/08/08 09:13:22;;;;;;;3.90;3.60;;;;;;;26.46;41.85;158179.25;5030432;28;20448;-76
2022/08/08 09:15:56;;;;;;;5.63;4.30;;;;;;;26.36;41.75;158153.06;4989744;28;20441;-76
2022/08/08 09:18:25;;;;;;;4.73;4.33;;;;;;;26.99;40.94;158316.84;5013388;28;20440;-76
2022/08/08 09:20:53;;;;;;;5.70;4.00;;;;;;;27.16;39.85;158361.41;5031431;28;20436;-76
2022/08/08 09:23:20;;;;;;;4.80;4.40;;;;;;;27.12;39.33;158352.22;5029874;28;20472;-76
2022/08/08 09:25:57;;;;;;;4.63;4.30;;;;;;;26.62;40.01;158221.16;4993594;28;20863;-77
2022/08/08 09:28:28;;;;;;;4.87;4.50;;;;;;;26.59;41.11;158214.63;4978364;28;20448;-76
2022/08/08 09:30:58;;;;;;;4.33;3.93;;;;;;;26.67;40.34;158232.94;4999626;28;20472;-76
2022/08/08 09:33:25;;;;;;;5.80;3.97;;;;;;;26.35;41.21;158151.75;4987485;28;20539;-76
2022/08/08 09:35:52;;;;;;;4.17;3.77;;;;;;;26.22;41.34;158116.38;4978437;28;20433;-76
2022/08/08 09:38:31;;;;;;;4.83;4.43;;;;;;;26.32;41.10;158142.56;4978512;28;20449;-76
2022/08/08 09:41:05;;;;;;;4.20;3.90;;;;;;;26.41;40.94;158167.47;4993241;28;20504;-76
2022/08/08 09:43:33;;;;;;;4.63;4.07;;;;;;;26.20;40.59;158112.47;4988440;28;20835;-76
2022/08/08 09:46:01;;;;;;;4.33;3.93;;;;;;;26.13;41.13;158092.84;5005455;28;20460;-76
2022/08/08 09:48:30;;;;;;;4.50;4.20;;;;;;;25.95;41.69;158046.94;4995208;28;20464;-76
2022/08/08 09:50:58;;;;;;;4.50;4.20;;;;;;;26.11;39.73;158088.84;4993982;28;20928;-76
2022/08/08 09:53:43;;;;;;;4.20;3.90;;;;;;;26.10;40.89;158084.94;5009599;28;20935;-76
2022/08/08 09:56:12;;;;;;;4.00;3.70;;;;;;;26.26;38.18;158126.88;4994609;28;20449;-76
2022/08/08 09:58:40;;;;;;;4.20;3.80;;;;;;;26.77;37.77;158259.19;5010606;28;20767;-79
2022/08/08 10:01:08;;;;;;;4.20;3.90;;;;;;;26.97;38.21;158311.63;4987987;28;20460;-80
2022/08/08 10:03:37;;;;;;;3.20;3.00;;;;;;;27.27;36.45;158388.94;5006230;28;20530;-80
2022/08/08 10:06:15;;;;;;;3.30;3.10;;;;;;;27.04;35.92;158331.25;5011272;28;20456;-80
2022/08/08 10:08:45;;;;;;;3.57;3.30;;;;;;;26.57;37.06;158209.41;5026431;28;20483;-80
2022/08/08 10:11:17;;;;;;;5.00;3.70;;;;;;;26.39;36.65;158162.25;5000817;28;20453;-81
2022/08/08 10:13:53;;;;;;;5.40;3.27;;;;;;;26.93;36.33;158301.09;4989530;28;20472;-80
2022/08/08 10:16:20;;;;;;;4.43;3.53;;;;;;;27.27;35.86;158388.94;4994176;28;20448;-80
2022/08/08 10:18:47;;;;;;;4.00;3.70;;;;;;;27.44;36.00;158434.81;4978303;28;20459;-80
2022/08/08 10:21:17;;;;;;;3.40;3.10;;;;;;;27.15;35.81;158360.09;4984118;28;20527;-80
2022/08/08 10:23:46;;;;;;;3.70;3.40;;;;;;;27.67;36.29;158495.09;5010074;28;20541;-80
2022/08/08 10:26:19;;;;;;;3.70;3.40;;;;;;;27.62;36.35;158480.69;5030932;28;20444;-80
2022/08/08 10:28:54;;;;;;;4.00;3.70;;;;;;;27.51;35.40;158453.16;5013773;28;20447;-80
2022/08/08 10:34:14;;;;;;;3.60;3.40;;;;;;;26.92;36.79;158298.53;4979741;28;20436;-80
2022/08/08 10:36:43;;;;;;;3.70;3.40;;;;;;;27.16;36.37;158361.41;5030057;28;20497;-80
2022/08/08 10:39:13;;;;;;;3.50;3.30;;;;;;;27.00;36.60;158320.81;5014064;28;20541;-80
2022/08/08 10:41:43;;;;;;;3.37;3.13;;;;;;;26.70;37.33;158240.81;5012233;28;20444;-80
2022/08/08 10:44:12;;;;;;;4.00;3.60;;;;;;;26.45;37.97;158176.66;5030513;28;20563;-81
2022/08/08 10:46:38;;;;;;;4.20;3.80;;;;;;;26.46;38.23;158179.25;5012792;28;20453;-81
2022/08/08 10:49:05;;;;;;;3.93;3.67;;;;;;;26.49;37.69;158188.44;5012332;28;20454;-80
2022/08/08 10:51:36;;;;;;;4.10;3.70;;;;;;;26.75;37.71;158253.91;5026417;28;20517;-80
2022/08/08 10:54:02;;;;;;;3.90;3.50;;;;;;;26.58;37.01;158212.00;5029685;28;20889;-80
2022/08/08 10:56:33;;;;;;;4.20;3.87;;;;;;;26.51;37.74;158192.34;5012968;28;20463;-80
2022/08/08 10:59:06;;;;;;;3.20;3.00;;;;;;;26.55;36.56;158202.84;5011682;28;20502;-80
2022/08/08 11:01:33;;;;;;;4.20;3.70;;;;;;;26.42;37.04;158170.06;5029796;28;20447;-80
2022/08/08 11:04:00;;;;;;;4.83;3.30;;;;;;;26.48;36.18;158185.81;5013071;28;20483;-80
2022/08/08 11:06:30;;;;;;;2.90;2.70;;;;;;;26.33;36.12;158146.53;5027497;28;20987;-80
2022/08/08 11:09:01;;;;;;;3.30;3.07;;;;;;;26.40;35.63;158164.84;5033643;28;20463;-80
2022/08/08 11:11:37;;;;;;;2.90;2.70;;;;;;;26.56;35.51;158205.44;5024355;28;20522;-80
2022/08/08 11:14:05;;;;;;;3.13;2.93;;;;;;;26.53;34.82;158198.91;5012712;28;20798;-80
2022/08/08 11:16:34;;;;;;;3.40;3.10;;;;;;;26.51;35.07;158192.34;5005722;28;20501;-80
2022/08/08 11:19:02;;;;;;;3.00;2.80;;;;;;;26.45;34.98;158177.94;5013042;28;20559;-80
2022/08/08 11:21:29;;;;;;;3.47;3.27;;;;;;;26.44;34.62;158174.03;5013171;28;20479;-80
2022/08/08 11:23:59;;;;;;;3.20;2.70;;;;;;;26.49;34.15;158188.44;5012178;28;20575;-80
2022/08/08 11:26:27;;;;;;;4.60;2.93;;;;;;;26.63;34.96;158225.09;5032576;28;21013;-81
2022/08/08 11:28:57;;;;;;;2.70;2.50;;;;;;;26.49;35.49;158188.44;5005816;28;20432;-80
2022/08/08 11:31:26;;;;;;;3.67;3.37;;;;;;;26.51;34.66;158193.66;5007740;28;20451;-81
2022/08/08 11:33:56;;;;;;;3.53;3.23;;;;;;;26.67;35.67;158232.94;5021207;28;20464;-81
2022/08/08 11:36:23;;;;;;;3.13;2.83;;;;;;;26.61;34.88;158219.84;5025770;28;20934;-81
2022/08/08 11:38:50;;;;;;;3.47;3.27;;;;;;;26.60;34.59;158215.94;5014586;28;20487;-81
2022/08/08 11:41:18;;;;;;;3.00;2.80;;;;;;;26.59;34.70;158214.63;5027746;28;20803;-81
2022/08/08 11:43:45;;;;;;;3.73;3.43;;;;;;;26.63;34.15;158222.50;5030597;28;20479;-81
2022/08/08 11:46:12;;;;;;;3.00;2.80;;;;;;;26.66;34.78;158230.34;5025015;28;20477;-81
2022/08/08 11:48:41;;;;;;;3.10;2.90;;;;;;;26.74;34.27;158252.59;5014288;28;20457;-81
2022/08/08 11:51:09;;;;;;;3.53;3.23;;;;;;;26.83;33.28;158274.91;5043438;28;20461;-81
2022/08/08 11:53:36;;;;;;;3.03;2.83;;;;;;;26.79;34.20;158264.47;5051884;28;20430;-81
2022/08/08 11:56:02;;;;;;;3.60;3.23;;;;;;;26.83;33.55;158274.91;5033975;28;20476;-81
2022/08/08 11:58:32;;;;;;;2.87;2.63;;;;;;;26.75;33.83;158253.91;5028123;28;20449;-81
2022/08/08 12:00:59;;;;;;;3.30;3.00;;;;;;;26.83;34.05;158274.91;5016506;28;20455;-80
2022/08/08 12:03:32;;;;;;;2.90;2.70;;;;;;;26.99;32.88;158316.84;5035089;28;20972;-80
2022/08/08 12:06:11;;;;;;;2.80;2.60;;;;;;;26.89;32.96;158290.66;5015762;28;20475;-80
2022/08/08 12:08:38;;;;;;;3.00;2.80;;;;;;;26.90;32.90;158293.28;5016455;28;20447;-80